createdAt,value
2019-02-24T00:02:01.296Z,99.90
2019-02-24T00:04:29.886Z,99.90
2019-02-24T00:06:58.536Z,99.90
2019-02-24T00:09:27.180Z,99.90
2019-02-24T00:11:57.398Z,99.90
2019-02-24T00:14:26.020Z,99.90
2019-02-24T00:16:55.033Z,99.90
2019-02-24T00:19:24.049Z,99.90
2019-02-24T00:21:52.642Z,99.90
2019-02-24T00:24:21.257Z,99.90
2019-02-24T00:26:50.059Z,99.90
2019-02-24T00:29:18.705Z,99.90
2019-02-24T00:31:47.425Z,99.90
2019-02-24T00:34:16.052Z,99.90
2019-02-24T00:36:44.798Z,99.90
2019-02-24T00:39:13.388Z,99.90
2019-02-24T00:41:42.067Z,99.90
2019-02-24T00:44:10.650Z,99.90
2019-02-24T00:46:39.328Z,99.90
2019-02-24T00:49:07.913Z,99.90
2019-02-24T00:51:36.529Z,99.90
2019-02-24T00:54:05.120Z,99.90
2019-02-24T00:56:33.793Z,99.90
2019-02-24T00:59:02.387Z,99.90
2019-02-24T01:01:31.334Z,99.90
2019-02-24T01:03:59.909Z,99.90
2019-02-24T01:06:28.591Z,99.90
2019-02-24T01:08:57.326Z,99.90
2019-02-24T01:11:25.889Z,99.90
2019-02-24T01:13:54.550Z,99.90
2019-02-24T01:16:23.224Z,99.90
2019-02-24T01:18:52.154Z,99.90
2019-02-24T01:21:20.752Z,99.90
2019-02-24T01:23:49.363Z,99.90
2019-02-24T01:26:17.947Z,99.90
2019-02-24T01:28:46.756Z,99.90
2019-02-24T01:31:16.926Z,99.90
2019-02-24T01:33:45.486Z,99.90
2019-02-24T01:36:14.072Z,99.90
2019-02-24T01:38:43.074Z,99.90
2019-02-24T01:41:11.654Z,99.90
2019-02-24T01:43:59.597Z,99.90
2019-02-24T01:46:28.181Z,99.90
2019-02-24T01:48:57.269Z,99.90
2019-02-24T01:51:25.841Z,99.90
2019-02-24T01:53:54.844Z,99.90
2019-02-24T01:56:23.525Z,99.90
2019-02-24T01:58:52.131Z,99.90
2019-02-24T02:01:20.952Z,99.90
2019-02-24T02:03:49.552Z,99.90
2019-02-24T02:06:18.134Z,99.90
2019-02-24T02:08:46.806Z,99.90
2019-02-24T02:11:15.418Z,99.90
2019-02-24T02:13:44.066Z,99.90
2019-02-24T02:16:12.751Z,99.90
2019-02-24T02:18:41.393Z,99.90
2019-02-24T02:21:10.014Z,99.90
2019-02-24T02:23:38.804Z,99.90
2019-02-24T02:26:07.469Z,99.90
2019-02-24T02:28:43.814Z,99.90
2019-02-24T02:31:06.340Z,99.90
2019-02-24T02:33:34.949Z,99.90
2019-02-24T02:36:03.537Z,99.90
2019-02-24T02:38:32.137Z,99.90
2019-02-24T02:41:01.174Z,99.90
2019-02-24T02:43:30.148Z,99.90
2019-02-24T02:45:58.729Z,99.90
2019-02-24T02:48:27.343Z,99.90
2019-02-24T02:50:55.937Z,99.90
2019-02-24T02:53:24.557Z,99.90
2019-02-24T02:55:53.485Z,99.90
2019-02-24T02:58:22.232Z,99.90
2019-02-24T03:00:50.927Z,99.90
2019-02-24T03:03:19.743Z,99.90
2019-02-24T03:05:49.962Z,99.90
2019-02-24T03:08:18.702Z,99.90
2019-02-24T03:10:47.389Z,99.90
2019-02-24T03:13:16.410Z,99.90
2019-02-24T03:15:45.299Z,99.90
2019-02-24T03:18:13.903Z,99.90
2019-02-24T03:20:42.521Z,99.90
2019-02-24T03:23:11.460Z,99.90
2019-02-24T03:25:40.154Z,99.90
2019-02-24T03:28:08.771Z,99.90
2019-02-24T03:30:37.480Z,99.90
2019-02-24T03:33:06.207Z,99.90
2019-02-24T03:35:34.766Z,99.90
2019-02-24T03:38:03.428Z,99.90
2019-02-24T03:40:32.101Z,99.90
2019-02-24T03:43:00.853Z,99.90
2019-02-24T03:45:29.464Z,99.90
2019-02-24T03:47:58.075Z,99.90
2019-02-24T03:50:26.748Z,99.90
2019-02-24T03:52:55.579Z,99.90
2019-02-24T03:55:24.446Z,99.90
2019-02-24T03:57:53.669Z,99.90
2019-02-24T04:00:22.296Z,99.90
2019-02-24T04:02:51.050Z,99.90
2019-02-24T04:05:19.735Z,99.90
2019-02-24T04:07:48.795Z,99.90
2019-02-24T04:10:17.407Z,99.90
2019-02-24T04:12:46.133Z,99.90
2019-02-24T04:15:15.250Z,99.90
2019-02-24T04:17:43.963Z,99.90
2019-02-24T04:20:12.801Z,99.90
2019-02-24T04:22:41.498Z,99.90
2019-02-24T04:25:10.317Z,99.90
2019-02-24T04:27:38.918Z,99.90
2019-02-24T04:30:08.563Z,99.90
2019-02-24T04:32:37.249Z,99.90
2019-02-24T04:35:07.827Z,99.90
2019-02-24T04:37:36.407Z,99.90
2019-02-24T04:40:06.829Z,99.90
2019-02-24T04:42:36.680Z,99.90
2019-02-24T04:45:06.076Z,99.90
2019-02-24T04:47:34.680Z,99.90
2019-02-24T04:50:03.544Z,99.90
2019-02-24T04:52:32.254Z,99.90
2019-02-24T04:55:00.938Z,99.90
2019-02-24T04:57:29.872Z,99.90
2019-02-24T04:59:58.444Z,99.90
2019-02-24T05:02:27.193Z,99.90
2019-02-24T05:04:55.778Z,99.90
2019-02-24T05:07:24.880Z,99.90
2019-02-24T05:09:53.626Z,99.90
2019-02-24T05:12:22.307Z,99.90
2019-02-24T05:14:51.046Z,99.90
2019-02-24T05:17:19.764Z,99.90
2019-02-24T05:19:48.401Z,99.90
2019-02-24T05:22:17.482Z,99.90
2019-02-24T05:24:46.066Z,99.90
2019-02-24T05:27:14.674Z,99.90
2019-02-24T05:29:46.239Z,99.90
2019-02-24T05:32:13.586Z,99.90
2019-02-24T05:34:42.649Z,99.90
2019-02-24T05:37:11.263Z,99.90
2019-02-24T05:39:40.270Z,99.90
2019-02-24T05:42:09.250Z,99.90
2019-02-24T05:44:37.898Z,99.90
2019-02-24T05:47:06.508Z,99.90
2019-02-24T05:49:35.104Z,99.90
2019-02-24T05:52:03.775Z,99.90
2019-02-24T05:54:32.536Z,99.90
2019-02-24T05:57:01.234Z,99.90
2019-02-24T05:59:29.904Z,99.90
2019-02-24T06:01:58.528Z,99.90
2019-02-24T06:04:27.146Z,99.90
2019-02-24T06:06:55.889Z,99.90
2019-02-24T06:09:24.511Z,99.90
2019-02-24T06:11:53.270Z,99.90
2019-02-24T06:14:22.243Z,99.90
2019-02-24T06:16:50.834Z,99.90
2019-02-24T06:19:19.484Z,99.90
2019-02-24T06:21:48.212Z,99.90
2019-02-24T06:24:16.837Z,99.90
2019-02-24T06:26:45.535Z,99.90
2019-02-24T06:29:14.244Z,99.90
2019-02-24T06:31:43.002Z,99.90
2019-02-24T06:34:11.791Z,99.90
2019-02-24T06:36:40.707Z,99.90
2019-02-24T06:39:09.874Z,99.90
2019-02-24T06:41:38.610Z,99.90
2019-02-24T06:44:07.241Z,99.90
2019-02-24T06:46:36.891Z,99.90
2019-02-24T06:49:05.556Z,99.90
2019-02-24T06:51:34.554Z,99.90
2019-02-24T06:54:03.318Z,99.90
2019-02-24T06:56:32.337Z,99.90
2019-02-24T06:59:00.954Z,99.90
2019-02-24T07:01:29.554Z,99.90
2019-02-24T07:03:58.232Z,99.90
2019-02-24T07:06:26.848Z,99.90
2019-02-24T07:08:55.779Z,99.90
2019-02-24T07:11:24.470Z,99.90
2019-02-24T07:13:53.076Z,99.90
2019-02-24T07:16:21.832Z,99.90
2019-02-24T07:18:50.421Z,99.90
2019-02-24T07:21:19.048Z,99.90
2019-02-24T07:23:47.732Z,99.90
2019-02-24T07:26:16.759Z,99.90
2019-02-24T07:28:45.367Z,99.90
2019-02-24T07:31:14.017Z,99.90
2019-02-24T07:33:42.619Z,99.90
2019-02-24T07:36:11.202Z,99.90
2019-02-24T07:38:39.905Z,99.90
2019-02-24T07:41:08.675Z,99.90
2019-02-24T07:43:37.347Z,99.90
2019-02-24T07:46:06.002Z,99.90
2019-02-24T07:48:34.830Z,99.90
2019-02-24T07:51:03.807Z,99.90
2019-02-24T07:53:32.607Z,99.90
2019-02-24T07:56:02.350Z,99.80
2019-02-24T07:58:30.592Z,98.80
2019-02-24T08:00:59.263Z,98.80
2019-02-24T08:03:27.911Z,97.10
2019-02-24T08:05:56.929Z,95.90
2019-02-24T08:08:25.514Z,95.10
2019-02-24T08:10:54.781Z,94.00
2019-02-24T08:13:23.801Z,91.70
2019-02-24T08:15:52.508Z,91.20
2019-02-24T08:18:21.601Z,88.30
2019-02-24T08:20:50.312Z,86.20
2019-02-24T08:23:20.341Z,84.00
2019-02-24T08:25:49.421Z,82.80
2019-02-24T08:28:17.305Z,82.00
2019-02-24T08:30:45.999Z,81.10
2019-02-24T08:33:14.923Z,78.20
2019-02-24T08:35:42.881Z,77.10
2019-02-24T08:38:11.489Z,75.50
2019-02-24T08:40:40.162Z,75.40
2019-02-24T08:43:08.822Z,72.00
2019-02-24T08:45:37.521Z,70.10
2019-02-24T08:48:06.316Z,69.70
2019-02-24T08:50:34.928Z,70.90
2019-02-24T08:53:03.580Z,69.30
2019-02-24T08:55:32.230Z,68.70
2019-02-24T08:58:00.856Z,67.40
2019-02-24T09:00:29.597Z,67.40
2019-02-24T09:02:58.290Z,66.20
2019-02-24T09:05:27.319Z,67.60
2019-02-24T09:07:56.411Z,65.30
2019-02-24T09:10:25.200Z,63.70
2019-02-24T09:12:53.747Z,64.90
2019-02-24T09:15:22.662Z,63.90
2019-02-24T09:17:51.508Z,64.20
2019-02-24T09:20:20.258Z,60.80
2019-02-24T09:22:48.934Z,62.10
2019-02-24T09:25:18.126Z,61.10
2019-02-24T09:27:46.866Z,61.20
2019-02-24T09:30:15.887Z,59.00
2019-02-24T09:32:44.558Z,57.40
2019-02-24T09:35:13.330Z,58.00
2019-02-24T09:37:42.424Z,56.70
2019-02-24T09:40:11.945Z,57.20
2019-02-24T09:42:40.680Z,56.70
2019-02-24T09:45:12.106Z,56.00
2019-02-24T09:47:46.881Z,54.70
2019-02-24T09:50:11.331Z,54.00
2019-02-24T09:52:40.068Z,53.90
2019-02-24T09:55:09.715Z,55.20
2019-02-24T09:57:38.891Z,55.00
2019-02-24T10:00:15.361Z,54.80
2019-02-24T10:02:44.323Z,54.50
2019-02-24T10:05:13.107Z,55.40
2019-02-24T10:07:41.722Z,54.90
2019-02-24T10:10:14.620Z,55.90
2019-02-24T10:12:43.311Z,55.60
2019-02-24T10:15:14.019Z,56.30
2019-02-24T10:17:42.703Z,56.50
2019-02-24T10:20:12.442Z,57.00
2019-02-24T10:22:41.102Z,56.80
2019-02-24T10:25:10.526Z,56.90
2019-02-24T10:27:39.251Z,56.40
2019-02-24T10:30:10.939Z,57.80
2019-02-24T10:32:39.687Z,58.60
2019-02-24T10:35:08.582Z,59.10
2019-02-24T10:37:37.303Z,59.20
2019-02-24T10:40:16.665Z,59.10
2019-02-24T10:42:45.844Z,59.60
2019-02-24T10:45:16.500Z,59.60
2019-02-24T10:47:45.164Z,59.50
2019-02-24T10:50:15.300Z,59.10
2019-02-24T10:52:44.062Z,59.20
2019-02-24T10:55:13.147Z,59.20
2019-02-24T10:57:43.173Z,60.50
2019-02-24T11:00:16.172Z,59.70
2019-02-24T11:02:45.346Z,59.40
2019-02-24T11:05:15.277Z,59.90
2019-02-24T11:07:44.108Z,59.60
2019-02-24T11:10:13.044Z,58.80
2019-02-24T11:12:41.683Z,59.20
2019-02-24T11:15:12.564Z,58.10
2019-02-24T11:17:41.406Z,57.90
2019-02-24T11:20:15.831Z,58.60
2019-02-24T11:22:44.561Z,58.60
2019-02-24T11:25:13.650Z,58.30
2019-02-24T11:27:42.624Z,58.30
2019-02-24T11:30:13.436Z,58.70
2019-02-24T11:32:42.220Z,58.40
2019-02-24T11:35:12.261Z,57.90
2019-02-24T11:37:41.141Z,55.20
2019-02-24T11:40:11.757Z,54.80
2019-02-24T11:42:40.761Z,53.70
2019-02-24T11:45:10.013Z,54.00
2019-02-24T11:47:38.703Z,52.80
2019-02-24T11:50:11.818Z,54.40
2019-02-24T11:52:40.601Z,53.00
2019-02-24T11:55:10.642Z,54.50
2019-02-24T11:57:39.473Z,52.20
2019-02-24T12:00:13.003Z,53.50
2019-02-24T12:02:42.039Z,54.10
2019-02-24T12:05:11.599Z,53.40
2019-02-24T12:07:40.748Z,53.20
2019-02-24T12:10:11.322Z,52.50
2019-02-24T12:12:40.163Z,51.90
2019-02-24T12:15:14.164Z,51.50
2019-02-24T12:17:44.048Z,51.20
2019-02-24T12:20:15.010Z,51.10
2019-02-24T12:22:43.767Z,50.90
2019-02-24T12:25:12.759Z,49.00
2019-02-24T12:27:41.412Z,50.30
2019-02-24T12:30:12.393Z,51.10
2019-02-24T12:32:41.174Z,49.80
2019-02-24T12:35:10.286Z,49.90
2019-02-24T12:37:39.504Z,50.40
2019-02-24T12:40:15.927Z,49.20
2019-02-24T12:42:44.568Z,49.30
2019-02-24T12:45:13.344Z,50.30
2019-02-24T12:47:45.002Z,51.90
2019-02-24T12:50:18.178Z,51.00
2019-02-24T12:52:46.931Z,49.50
2019-02-24T12:55:15.609Z,51.60
2019-02-24T12:57:44.712Z,51.00
2019-02-24T13:00:25.576Z,51.90
2019-02-24T13:02:54.773Z,51.30
2019-02-24T13:05:23.999Z,51.30
2019-02-24T13:07:52.804Z,50.10
2019-02-24T13:10:21.546Z,50.00
2019-02-24T13:12:50.176Z,50.40
2019-02-24T13:15:19.098Z,48.80
2019-02-24T13:17:47.856Z,49.40
2019-02-24T13:20:16.639Z,49.60
2019-02-24T13:22:45.395Z,47.80
2019-02-24T13:25:14.641Z,48.50
2019-02-24T13:27:43.821Z,48.20
2019-02-24T13:30:14.750Z,48.10
2019-02-24T13:32:43.540Z,47.20
2019-02-24T13:35:12.141Z,47.50
2019-02-24T13:37:41.066Z,47.60
2019-02-24T13:40:14.880Z,46.50
2019-02-24T13:42:44.069Z,46.30
2019-02-24T13:45:17.956Z,47.40
2019-02-24T13:47:46.764Z,45.80
2019-02-24T13:50:16.162Z,46.30
2019-02-24T13:52:44.950Z,45.70
2019-02-24T13:55:15.164Z,46.10
2019-02-24T13:57:43.856Z,45.40
2019-02-24T14:00:15.263Z,45.60
2019-02-24T14:02:43.931Z,46.50
2019-02-24T14:05:13.025Z,45.20
2019-02-24T14:07:41.771Z,44.20
2019-02-24T14:10:12.575Z,44.20
2019-02-24T14:12:41.799Z,45.00
2019-02-24T14:15:14.581Z,44.80
2019-02-24T14:17:43.718Z,44.10
2019-02-24T14:20:16.455Z,42.80
2019-02-24T14:22:45.217Z,43.20
2019-02-24T14:25:15.085Z,44.30
2019-02-24T14:27:44.248Z,44.00
2019-02-24T14:30:19.130Z,42.90
2019-02-24T14:32:48.375Z,43.10
2019-02-24T14:35:25.273Z,42.90
2019-02-24T14:37:54.141Z,43.40
2019-02-24T14:40:23.241Z,42.10
2019-02-24T14:42:52.084Z,42.50
2019-02-24T14:45:22.447Z,43.20
2019-02-24T14:47:51.194Z,43.30
2019-02-24T14:50:20.258Z,42.50
2019-02-24T14:52:49.011Z,42.90
2019-02-24T14:55:17.731Z,41.80
2019-02-24T14:57:46.481Z,41.90
2019-02-24T15:00:25.919Z,42.10
2019-02-24T15:02:54.954Z,43.00
2019-02-24T15:05:23.606Z,43.10
2019-02-24T15:07:52.425Z,42.90
2019-02-24T15:10:25.293Z,42.80
2019-02-24T15:12:54.052Z,43.10
2019-02-24T15:15:33.049Z,43.20
2019-02-24T15:17:59.116Z,42.80
2019-02-24T15:20:28.195Z,42.90
2019-02-24T15:22:57.953Z,42.60
2019-02-24T15:25:26.710Z,42.60
2019-02-24T15:27:55.888Z,42.90
2019-02-24T15:30:30.642Z,43.20
2019-02-24T15:32:59.808Z,42.20
2019-02-24T15:35:29.048Z,41.50
2019-02-24T15:37:57.736Z,40.90
2019-02-24T15:40:26.928Z,40.20
2019-02-24T15:42:55.624Z,39.30
2019-02-24T15:45:24.639Z,39.60
2019-02-24T15:47:53.349Z,38.90
2019-02-24T15:50:22.086Z,38.60
2019-02-24T15:52:50.669Z,38.20
2019-02-24T15:55:19.743Z,38.50
2019-02-24T15:57:48.313Z,39.70
2019-02-24T16:00:18.760Z,40.00
2019-02-24T16:02:47.498Z,41.50
2019-02-24T16:05:17.853Z,42.10
2019-02-24T16:07:48.496Z,42.20
2019-02-24T16:10:21.792Z,42.80
2019-02-24T16:12:50.782Z,41.30
2019-02-24T16:15:21.710Z,41.60
2019-02-24T16:17:50.356Z,42.40
2019-02-24T16:20:21.962Z,42.90
2019-02-24T16:22:50.949Z,43.50
2019-02-24T16:25:19.920Z,44.40
2019-02-24T16:27:48.731Z,42.60
2019-02-24T16:30:17.416Z,43.10
2019-02-24T16:32:46.097Z,43.80
2019-02-24T16:35:16.348Z,44.20
2019-02-24T16:37:45.158Z,43.60
2019-02-24T16:40:16.134Z,45.20
2019-02-24T16:42:45.241Z,44.00
2019-02-24T16:45:15.672Z,44.40
2019-02-24T16:47:44.755Z,45.00
2019-02-24T16:50:17.916Z,44.20
2019-02-24T16:52:46.569Z,44.60
2019-02-24T16:55:18.853Z,45.40
2019-02-24T16:57:48.148Z,46.60
2019-02-24T17:00:19.836Z,47.60
2019-02-24T17:02:49.049Z,51.00
2019-02-24T17:05:17.889Z,54.20
2019-02-24T17:07:46.676Z,54.20
2019-02-24T17:10:28.573Z,54.90
2019-02-24T17:12:57.525Z,56.70
2019-02-24T17:15:26.292Z,58.70
2019-02-24T17:17:55.034Z,59.70
2019-02-24T17:20:28.080Z,59.40
2019-02-24T17:22:56.849Z,59.20
2019-02-24T17:25:25.592Z,61.30
2019-02-24T17:27:54.277Z,60.20
2019-02-24T17:30:23.797Z,62.10
2019-02-24T17:32:53.106Z,61.90
2019-02-24T17:35:22.307Z,60.00
2019-02-24T17:37:51.038Z,60.40
2019-02-24T17:40:21.270Z,61.90
2019-02-24T17:42:50.319Z,63.10
2019-02-24T17:45:19.397Z,62.00
2019-02-24T17:47:48.117Z,62.70
2019-02-24T17:50:17.688Z,63.70
2019-02-24T17:52:46.857Z,65.90
2019-02-24T17:55:17.564Z,65.70
2019-02-24T17:57:46.276Z,66.50
2019-02-24T18:00:19.038Z,67.50
2019-02-24T18:02:47.734Z,68.30
2019-02-24T18:05:16.777Z,71.10
2019-02-24T18:07:45.666Z,72.60
2019-02-24T18:10:14.653Z,73.60
2019-02-24T18:12:43.372Z,73.00
2019-02-24T18:15:13.714Z,73.20
2019-02-24T18:17:42.392Z,75.80
2019-02-24T18:20:14.144Z,73.50
2019-02-24T18:22:42.896Z,73.80
2019-02-24T18:25:13.081Z,75.70
2019-02-24T18:27:41.906Z,77.00
2019-02-24T18:30:19.172Z,77.30
2019-02-24T18:32:48.481Z,77.70
2019-02-24T18:35:17.554Z,78.50
2019-02-24T18:37:46.362Z,82.20
2019-02-24T18:40:16.031Z,83.50
2019-02-24T18:42:44.712Z,85.00
2019-02-24T18:45:14.428Z,84.70
2019-02-24T18:47:43.616Z,80.80
2019-02-24T18:50:16.426Z,81.60
2019-02-24T18:52:45.408Z,79.30
2019-02-24T18:55:14.726Z,81.20
2019-02-24T18:57:43.627Z,84.40
2019-02-24T19:00:20.985Z,81.30
2019-02-24T19:02:50.088Z,79.60
2019-02-24T19:05:18.849Z,81.30
2019-02-24T19:07:47.862Z,86.20
2019-02-24T19:10:23.481Z,86.60
2019-02-24T19:12:52.164Z,87.40
2019-02-24T19:15:25.816Z,88.10
2019-02-24T19:17:54.554Z,89.90
2019-02-24T19:20:24.686Z,90.50
2019-02-24T19:22:53.598Z,91.50
2019-02-24T19:25:22.756Z,92.50
2019-02-24T19:27:51.745Z,92.40
2019-02-24T19:30:21.204Z,89.50
2019-02-24T19:32:50.043Z,90.10
2019-02-24T19:35:19.771Z,81.80
2019-02-24T19:37:48.886Z,87.60
2019-02-24T19:40:21.262Z,90.80
2019-02-24T19:42:50.397Z,92.20
2019-02-24T19:45:20.876Z,89.20
2019-02-24T19:47:49.849Z,89.60
2019-02-24T19:50:18.824Z,89.40
2019-02-24T19:52:47.701Z,89.80
2019-02-24T19:55:17.428Z,89.50
2019-02-24T19:57:46.607Z,89.30
2019-02-24T20:00:20.560Z,88.90
2019-02-24T20:02:49.746Z,88.10
2019-02-24T20:05:19.556Z,90.60
2019-02-24T20:07:48.702Z,88.60
2019-02-24T20:10:25.603Z,91.10
2019-02-24T20:12:54.276Z,90.10
2019-02-24T20:15:23.179Z,91.00
2019-02-24T20:17:52.115Z,91.90
2019-02-24T20:20:20.993Z,92.50
2019-02-24T20:22:49.744Z,92.90
2019-02-24T20:25:20.587Z,92.90
2019-02-24T20:27:49.314Z,93.80
2019-02-24T20:30:26.979Z,93.30
2019-02-24T20:32:55.639Z,95.00
2019-02-24T20:35:24.426Z,92.50
2019-02-24T20:37:53.192Z,93.00
2019-02-24T20:40:22.331Z,93.80
2019-02-24T20:42:51.281Z,93.60
2019-02-24T20:45:21.104Z,93.10
2019-02-24T20:47:50.427Z,93.30
2019-02-24T20:50:28.164Z,93.90
2019-02-24T20:52:56.931Z,94.50
2019-02-24T20:55:25.626Z,94.40
2019-02-24T20:57:54.305Z,93.90
2019-02-24T21:00:31.577Z,94.20
2019-02-24T21:03:01.418Z,94.10
2019-02-24T21:05:30.856Z,93.70
2019-02-24T21:07:59.645Z,92.90
2019-02-24T21:10:28.398Z,92.20
2019-02-24T21:12:57.214Z,92.10
2019-02-24T21:15:25.890Z,91.10
2019-02-24T21:17:54.688Z,90.20
2019-02-24T21:20:26.735Z,90.60
2019-02-24T21:22:55.381Z,89.90
2019-02-24T21:25:24.163Z,89.00
2019-02-24T21:27:52.912Z,89.40
2019-02-24T21:30:21.857Z,90.10
2019-02-24T21:32:50.829Z,89.00
2019-02-24T21:35:19.573Z,89.80
2019-02-24T21:37:48.359Z,89.40
2019-02-24T21:40:18.508Z,89.00
2019-02-24T21:42:47.309Z,89.50
2019-02-24T21:45:21.407Z,89.60
2019-02-24T21:49:46.313Z,90.00
2019-02-24T21:52:15.990Z,90.90
2019-02-24T21:54:45.845Z,91.00
2019-02-24T21:57:15.902Z,91.40
2019-02-24T21:59:46.089Z,91.50
2019-02-24T22:02:15.916Z,91.60
2019-02-24T22:04:45.662Z,91.80
2019-02-24T22:07:16.108Z,92.40
2019-02-24T22:09:45.832Z,92.50
2019-02-24T22:12:15.431Z,92.50
2019-02-24T22:14:45.460Z,92.80
2019-02-24T22:17:15.392Z,93.20
2019-02-24T22:19:47.596Z,93.60
2019-02-24T22:22:17.504Z,94.40
2019-02-24T22:24:48.078Z,93.30
2019-02-24T22:27:17.856Z,91.70
2019-02-24T22:29:48.402Z,92.20
2019-02-24T22:32:18.294Z,93.20
2019-02-24T22:34:48.187Z,93.60
2019-02-24T22:37:18.495Z,93.40
2019-02-24T22:39:49.094Z,94.30
2019-02-24T22:42:19.216Z,93.80
2019-02-24T22:44:49.470Z,95.90
2019-02-24T22:47:19.872Z,98.20
2019-02-24T22:49:49.608Z,97.60
2019-02-24T22:52:19.705Z,96.10
2019-02-24T22:54:49.635Z,95.70
2019-02-24T22:57:19.752Z,97.80
2019-02-24T22:59:49.551Z,96.50
2019-02-24T23:02:22.096Z,98.80
2019-02-24T23:04:52.667Z,96.20
2019-02-24T23:07:22.648Z,95.40
2019-02-24T23:09:52.412Z,95.20
2019-02-24T23:12:22.212Z,93.90
2019-02-24T23:14:52.296Z,93.60
2019-02-24T23:17:22.133Z,90.60
2019-02-24T23:19:51.998Z,89.10
2019-02-24T23:22:22.000Z,89.50
2019-02-24T23:24:52.258Z,91.50
2019-02-24T23:27:23.096Z,89.80
2019-02-24T23:29:52.843Z,89.30
2019-02-24T23:32:22.635Z,89.50
2019-02-24T23:34:52.781Z,90.20
2019-02-24T23:37:22.855Z,90.00
2019-02-24T23:39:52.430Z,90.20
2019-02-24T23:42:22.481Z,91.30
2019-02-24T23:44:52.341Z,91.30
2019-02-24T23:47:21.907Z,90.40
2019-02-24T23:49:51.645Z,90.40
2019-02-24T23:52:21.918Z,90.20
2019-02-24T23:54:51.743Z,90.90
2019-02-24T23:57:21.578Z,92.30
2019-02-24T23:59:51.678Z,92.40
